createdAt,value
2022-08-17T04:50:46.489Z,96967.28
2022-08-17T04:53:15.279Z,96969.50
2022-08-17T04:55:43.144Z,96983.19
2022-08-17T05:04:42.189Z,96995.72
2022-08-17T05:07:10.617Z,96995.25
2022-08-17T05:09:38.212Z,96987.25
2022-08-17T05:12:06.349Z,96998.91
2022-08-17T05:14:34.061Z,97008.78
2022-08-17T05:17:08.085Z,97015.09
2022-08-17T05:19:39.412Z,97008.75
2022-08-17T05:22:07.136Z,97018.31
2022-08-17T05:24:42.618Z,97027.25
2022-08-17T05:27:21.981Z,97029.09
2022-08-17T05:29:51.184Z,97026.19
2022-08-17T05:32:38.256Z,97030.09
2022-08-17T05:35:07.812Z,97035.88
2022-08-17T05:37:35.414Z,97035.03
2022-08-17T05:40:03.345Z,97037.91
2022-08-17T05:42:30.955Z,97031.03
2022-08-17T05:44:59.138Z,97035.41
2022-08-17T05:47:26.781Z,97034.88
2022-08-17T05:49:54.415Z,97036.09
2022-08-17T05:52:42.862Z,97033.69
2022-08-17T05:55:16.921Z,97039.59
2022-08-17T05:58:04.195Z,97029.84
2022-08-17T06:00:33.570Z,97030.69
2022-08-17T06:03:04.409Z,97023.50
2022-08-17T06:05:53.023Z,97029.16
2022-08-17T06:08:37.691Z,97013.28
2022-08-17T06:11:05.247Z,97027.06
2022-08-17T06:13:42.064Z,97027.59
2022-08-17T06:16:34.183Z,97022.69
2022-08-17T06:19:42.519Z,97018.09
2022-08-17T06:22:13.550Z,97018.69
2022-08-17T06:24:47.377Z,97022.34
2022-08-17T06:27:35.824Z,97020.38
2022-08-17T06:30:20.464Z,97009.75
2022-08-17T06:32:49.806Z,97018.34
2022-08-17T06:35:34.244Z,97020.59
2022-08-17T06:38:33.955Z,97015.00
2022-08-17T06:41:25.363Z,97011.06
2022-08-17T06:44:02.204Z,97008.25
2022-08-17T06:46:37.171Z,97017.34
2022-08-17T06:49:14.148Z,97014.69
2022-08-17T06:51:46.396Z,97020.91
2022-08-17T06:54:40.160Z,97016.81
2022-08-17T06:57:31.893Z,97010.63
2022-08-17T07:00:04.124Z,97015.53
2022-08-17T07:02:51.037Z,97022.66
2022-08-17T07:05:20.881Z,97010.63
2022-08-17T07:08:03.414Z,97014.97
2022-08-17T07:10:48.974Z,97011.22
2022-08-17T07:13:31.416Z,97019.63
2022-08-17T07:16:11.194Z,97014.59
2022-08-17T07:18:38.901Z,97017.84
2022-08-17T07:21:34.544Z,97020.78
2022-08-17T07:24:30.053Z,97033.38
2022-08-17T07:27:10.822Z,97028.44
2022-08-17T07:29:58.639Z,97026.03
2022-08-17T07:32:31.674Z,97025.53
2022-08-17T07:35:17.372Z,97029.34
2022-08-17T07:38:25.394Z,97033.50
2022-08-17T07:40:57.924Z,97029.06
2022-08-17T07:43:26.415Z,97026.00
2022-08-17T07:46:24.349Z,97039.03
2022-08-17T07:48:56.913Z,97040.97
2022-08-17T07:51:29.259Z,97047.66
2022-08-17T07:54:13.503Z,97047.50
2022-08-17T07:56:48.954Z,97049.53
2022-08-17T07:59:18.432Z,97051.00
2022-08-17T08:01:58.197Z,97051.72
2022-08-17T08:07:17.697Z,97048.66
2022-08-17T08:10:00.619Z,97046.41
2022-08-17T08:12:34.268Z,97042.31
2022-08-17T08:15:17.877Z,97044.38
2022-08-17T08:17:54.553Z,97042.59
2022-08-17T08:20:50.945Z,97048.28
2022-08-17T08:23:39.618Z,97045.09
2022-08-17T08:26:11.139Z,97040.25
2022-08-17T08:28:52.293Z,97040.88
2022-08-17T08:31:42.201Z,97041.47
2022-08-17T08:34:53.494Z,97043.16
2022-08-17T08:37:17.757Z,97042.88
2022-08-17T08:40:16.163Z,97048.09
2022-08-17T08:42:56.582Z,97050.63
2022-08-17T08:45:24.095Z,97054.47
2022-08-17T08:48:45.875Z,97054.16
2022-08-17T08:51:22.117Z,97052.94
2022-08-17T08:53:55.721Z,97056.56
2022-08-17T08:56:58.999Z,97061.53
2022-08-17T08:59:41.841Z,97049.50
2022-08-17T09:02:34.852Z,97053.28
2022-08-17T09:05:18.011Z,97057.25
2022-08-17T09:07:57.608Z,97055.44
2022-08-17T09:10:35.096Z,97048.56
2022-08-17T09:13:15.363Z,97049.63
2022-08-17T09:15:47.223Z,97041.91
2022-08-17T09:19:02.395Z,97050.97
2022-08-17T09:21:52.762Z,97045.31
2022-08-17T09:24:20.967Z,97044.50
2022-08-17T09:26:54.092Z,97052.97
2022-08-17T09:29:25.551Z,97048.13
2022-08-17T09:31:58.618Z,97044.25
2022-08-17T09:34:39.012Z,97053.75
2022-08-17T09:37:23.301Z,97046.22
2022-08-17T09:40:06.892Z,97058.22
2022-08-17T09:42:59.040Z,97047.25
2022-08-17T09:45:38.781Z,97050.69
2022-08-17T09:48:12.444Z,97050.38
